MMGM/GYM METAR and TAF weather

Enter ICAO airport designator
Station Type Date Time Source
MMGM METAR 2019/06/19 00:40 UTC NOAA

MMGM 190040Z 25011KT 10SM SCT210 33/22 A2977 RMK 8/007


Station Type Date Time Source
MMGM Decoded METAR 2019/06/19 00:40 UTC NOAA

Guaymas International Airport, Mexico (MMGM) 27-58N 110-56W
Jun 18, 2019 - 08:40 PM EDT / 2019.06.19 0040 UTC
Wind: from the WSW (250 degrees) at 13 MPH (11 KT):0
Visibility: 10 mile(s):0
Sky conditions: partly cloudy
Temperature: 91 F (33 C)
Heat index: 97.5 F (36.4 C):1
Dew Point: 71 F (22 C)
Relative Humidity: 52%
Pressure (altimeter): 29.77 in. Hg (1008 hPa)
ob: MMGM 190040Z 25011KT 10SM SCT210 33/22 A2977 RMK 8/007
cycle: 0

Station Type Date Time Source
MMGM TAF 2019/06/18 18:59 UTC NOAA

TAF MMGM 181658Z 1818/1918 28010KT P6SM SCT025
FM190300 00000KT P6SM SKC

Example: see airport list